sensor_id;sensor_type;location;lat;lon;timestamp;P1;durP1;ratioP1;P2;durP2;ratioP2
32455;SDS011;18912;43.270;27.942;2023-03-01T00:00:26;15.27;;;7.00;;
32455;SDS011;18912;43.270;27.942;2023-03-01T00:02:51;14.90;;;6.90;;
32455;SDS011;18912;43.270;27.942;2023-03-01T00:05:17;13.83;;;7.23;;
32455;SDS011;18912;43.270;27.942;2023-03-01T00:07:42;16.10;;;7.70;;
32455;SDS011;18912;43.270;27.942;2023-03-01T00:10:08;16.87;;;6.33;;
32455;SDS011;18912;43.270;27.942;2023-03-01T00:12:34;17.17;;;6.70;;
32455;SDS011;18912;43.270;27.942;2023-03-01T00:15:01;18.35;;;8.18;;
32455;SDS011;18912;43.270;27.942;2023-03-01T00:17:27;15.90;;;7.23;;
32455;SDS011;18912;43.270;27.942;2023-03-01T00:19:52;18.55;;;8.13;;
32455;SDS011;18912;43.270;27.942;2023-03-01T00:22:18;15.67;;;7.87;;
32455;SDS011;18912;43.270;27.942;2023-03-01T00:24:43;19.73;;;7.10;;
32455;SDS011;18912;43.270;27.942;2023-03-01T00:27:09;19.63;;;7.63;;
32455;SDS011;18912;43.270;27.942;2023-03-01T00:29:34;13.33;;;7.20;;
32455;SDS011;18912;43.270;27.942;2023-03-01T00:32:00;18.33;;;6.67;;
32455;SDS011;18912;43.270;27.942;2023-03-01T00:34:25;21.73;;;7.30;;
32455;SDS011;18912;43.270;27.942;2023-03-01T00:36:50;12.17;;;6.93;;
32455;SDS011;18912;43.270;27.942;2023-03-01T00:39:16;18.37;;;7.40;;
32455;SDS011;18912;43.270;27.942;2023-03-01T00:41:42;15.50;;;7.63;;
32455;SDS011;18912;43.270;27.942;2023-03-01T00:44:07;11.85;;;6.57;;
32455;SDS011;18912;43.270;27.942;2023-03-01T00:46:33;20.70;;;6.90;;
32455;SDS011;18912;43.270;27.942;2023-03-01T00:48:59;14.35;;;6.85;;
32455;SDS011;18912;43.270;27.942;2023-03-01T00:51:27;14.48;;;6.97;;
32455;SDS011;18912;43.270;27.942;2023-03-01T00:53:54;18.15;;;8.65;;
32455;SDS011;18912;43.270;27.942;2023-03-01T00:56:21;15.32;;;6.65;;
32455;SDS011;18912;43.270;27.942;2023-03-01T00:58:48;12.60;;;6.43;;
32455;SDS011;18912;43.270;27.942;2023-03-01T01:01:17;12.63;;;6.47;;
32455;SDS011;18912;43.270;27.942;2023-03-01T01:03:59;19.23;;;6.85;;
32455;SDS011;18912;43.270;27.942;2023-03-01T01:06:31;18.20;;;7.10;;
32455;SDS011;18912;43.270;27.942;2023-03-01T01:09:07;16.48;;;7.97;;
32455;SDS011;18912;43.270;27.942;2023-03-01T01:11:34;12.45;;;7.13;;
32455;SDS011;18912;43.270;27.942;2023-03-01T01:14:01;12.43;;;6.47;;
32455;SDS011;18912;43.270;27.942;2023-03-01T01:16:27;15.00;;;6.90;;
32455;SDS011;18912;43.270;27.942;2023-03-01T01:18:54;21.05;;;8.55;;
32455;SDS011;18912;43.270;27.942;2023-03-01T01:21:21;16.70;;;7.03;;
32455;SDS011;18912;43.270;27.942;2023-03-01T01:23:48;19.85;;;9.07;;
32455;SDS011;18912;43.270;27.942;2023-03-01T01:26:18;19.30;;;8.18;;
32455;SDS011;18912;43.270;27.942;2023-03-01T01:28:46;21.10;;;8.32;;
32455;SDS011;18912;43.270;27.942;2023-03-01T01:31:12;17.77;;;8.00;;
32455;SDS011;18912;43.270;27.942;2023-03-01T01:33:38;18.60;;;9.23;;
32455;SDS011;18912;43.270;27.942;2023-03-01T01:36:04;19.23;;;9.57;;
32455;SDS011;18912;43.270;27.942;2023-03-01T01:38:31;16.88;;;8.70;;
32455;SDS011;18912;43.270;27.942;2023-03-01T01:40:57;33.72;;;9.40;;
32455;SDS011;18912;43.270;27.942;2023-03-01T01:43:44;20.45;;;9.52;;
32455;SDS011;18912;43.270;27.942;2023-03-01T01:48:48;17.00;;;8.27;;
32455;SDS011;18912;43.270;27.942;2023-03-01T01:51:18;23.02;;;9.95;;
32455;SDS011;18912;43.270;27.942;2023-03-01T01:53:51;19.13;;;9.85;;
32455;SDS011;18912;43.270;27.942;2023-03-01T01:56:21;21.67;;;9.50;;
32455;SDS011;18912;43.270;27.942;2023-03-01T01:58:49;17.23;;;9.32;;
32455;SDS011;18912;43.270;27.942;2023-03-01T02:01:15;17.58;;;9.52;;
32455;SDS011;18912;43.270;27.942;2023-03-01T02:03:42;21.23;;;10.50;;
32455;SDS011;18912;43.270;27.942;2023-03-01T02:08:35;21.90;;;10.97;;
32455;SDS011;18912;43.270;27.942;2023-03-01T02:11:03;24.27;;;11.48;;
32455;SDS011;18912;43.270;27.942;2023-03-01T02:13:30;29.02;;;13.75;;
32455;SDS011;18912;43.270;27.942;2023-03-01T02:15:57;23.27;;;12.10;;
32455;SDS011;18912;43.270;27.942;2023-03-01T02:18:23;23.75;;;11.85;;
32455;SDS011;18912;43.270;27.942;2023-03-01T02:23:27;27.42;;;12.48;;
32455;SDS011;18912;43.270;27.942;2023-03-01T02:28:57;26.73;;;12.73;;
32455;SDS011;18912;43.270;27.942;2023-03-01T02:31:22;23.50;;;12.90;;
32455;SDS011;18912;43.270;27.942;2023-03-01T02:34:07;28.38;;;14.15;;
32455;SDS011;18912;43.270;27.942;2023-03-01T02:36:36;28.48;;;13.43;;
32455;SDS011;18912;43.270;27.942;2023-03-01T02:39:05;29.95;;;14.77;;
32455;SDS011;18912;43.270;27.942;2023-03-01T02:41:39;27.88;;;14.02;;
32455;SDS011;18912;43.270;27.942;2023-03-01T02:44:07;28.08;;;13.45;;
32455;SDS011;18912;43.270;27.942;2023-03-01T02:46:33;32.15;;;14.80;;
32455;SDS011;18912;43.270;27.942;2023-03-01T02:48:59;33.73;;;16.23;;
32455;SDS011;18912;43.270;27.942;2023-03-01T02:51:34;27.52;;;14.07;;
32455;SDS011;18912;43.270;27.942;2023-03-01T02:56:58;31.15;;;14.95;;
32455;SDS011;18912;43.270;27.942;2023-03-01T02:59:26;29.75;;;15.82;;
32455;SDS011;18912;43.270;27.942;2023-03-01T03:01:56;30.02;;;15.25;;
32455;SDS011;18912;43.270;27.942;2023-03-01T03:04:21;28.97;;;14.70;;
32455;SDS011;18912;43.270;27.942;2023-03-01T03:06:48;29.10;;;14.75;;
32455;SDS011;18912;43.270;27.942;2023-03-01T03:09:15;32.53;;;14.35;;
32455;SDS011;18912;43.270;27.942;2023-03-01T03:14:10;31.67;;;15.00;;
32455;SDS011;18912;43.270;27.942;2023-03-01T03:16:39;30.13;;;15.50;;
32455;SDS011;18912;43.270;27.942;2023-03-01T03:19:09;30.67;;;15.55;;
32455;SDS011;18912;43.270;27.942;2023-03-01T03:21:35;30.25;;;15.68;;
32455;SDS011;18912;43.270;27.942;2023-03-01T03:24:01;31.05;;;15.10;;
32455;SDS011;18912;43.270;27.942;2023-03-01T03:26:27;31.27;;;15.27;;
32455;SDS011;18912;43.270;27.942;2023-03-01T03:28:53;35.22;;;15.70;;
32455;SDS011;18912;43.270;27.942;2023-03-01T03:31:19;41.07;;;16.07;;
32455;SDS011;18912;43.270;27.942;2023-03-01T03:33:46;32.42;;;16.35;;
32455;SDS011;18912;43.270;27.942;2023-03-01T03:36:15;38.43;;;16.40;;
32455;SDS011;18912;43.270;27.942;2023-03-01T03:38:45;37.00;;;16.60;;
32455;SDS011;18912;43.270;27.942;2023-03-01T03:41:11;35.30;;;16.27;;
32455;SDS011;18912;43.270;27.942;2023-03-01T03:43:38;34.22;;;16.67;;
32455;SDS011;18912;43.270;27.942;2023-03-01T03:46:05;38.22;;;17.08;;
32455;SDS011;18912;43.270;27.942;2023-03-01T03:48:33;35.63;;;16.50;;
32455;SDS011;18912;43.270;27.942;2023-03-01T03:50:59;36.40;;;16.40;;
32455;SDS011;18912;43.270;27.942;2023-03-01T03:53:26;40.13;;;18.10;;
32455;SDS011;18912;43.270;27.942;2023-03-01T03:55:52;42.22;;;17.60;;
32455;SDS011;18912;43.270;27.942;2023-03-01T03:58:19;36.45;;;17.00;;
32455;SDS011;18912;43.270;27.942;2023-03-01T04:00:46;35.22;;;18.23;;
32455;SDS011;18912;43.270;27.942;2023-03-01T04:03:13;35.83;;;17.40;;
32455;SDS011;18912;43.270;27.942;2023-03-01T04:05:40;35.92;;;17.30;;
32455;SDS011;18912;43.270;27.942;2023-03-01T04:08:07;38.50;;;17.83;;
32455;SDS011;18912;43.270;27.942;2023-03-01T04:10:37;36.45;;;17.15;;
32455;SDS011;18912;43.270;27.942;2023-03-01T04:13:05;43.95;;;18.58;;
32455;SDS011;18912;43.270;27.942;2023-03-01T04:15:32;40.70;;;18.63;;
32455;SDS011;18912;43.270;27.942;2023-03-01T04:17:58;41.30;;;18.70;;
32455;SDS011;18912;43.270;27.942;2023-03-01T04:23:00;37.80;;;18.10;;
32455;SDS011;18912;43.270;27.942;2023-03-01T04:25:57;43.63;;;18.23;;
32455;SDS011;18912;43.270;27.942;2023-03-01T04:28:23;40.92;;;19.52;;
32455;SDS011;18912;43.270;27.942;2023-03-01T04:30:50;32.80;;;17.35;;
32455;SDS011;18912;43.270;27.942;2023-03-01T04:33:17;38.13;;;18.23;;
32455;SDS011;18912;43.270;27.942;2023-03-01T04:35:43;43.50;;;19.63;;
32455;SDS011;18912;43.270;27.942;2023-03-01T04:38:08;36.87;;;17.73;;
32455;SDS011;18912;43.270;27.942;2023-03-01T04:40:34;40.17;;;18.75;;
32455;SDS011;18912;43.270;27.942;2023-03-01T04:43:00;43.20;;;19.05;;
32455;SDS011;18912;43.270;27.942;2023-03-01T04:45:25;36.07;;;18.17;;
32455;SDS011;18912;43.270;27.942;2023-03-01T04:47:51;23.80;;;11.93;;
32455;SDS011;18912;43.270;27.942;2023-03-01T04:50:17;38.65;;;18.58;;
32455;SDS011;18912;43.270;27.942;2023-03-01T04:52:45;40.95;;;18.17;;
32455;SDS011;18912;43.270;27.942;2023-03-01T04:55:11;37.42;;;17.27;;
32455;SDS011;18912;43.270;27.942;2023-03-01T04:57:37;50.83;;;19.52;;
32455;SDS011;18912;43.270;27.942;2023-03-01T05:00:04;39.13;;;17.67;;
32455;SDS011;18912;43.270;27.942;2023-03-01T05:02:45;43.28;;;18.45;;
32455;SDS011;18912;43.270;27.942;2023-03-01T05:05:41;38.17;;;17.85;;
32455;SDS011;18912;43.270;27.942;2023-03-01T05:08:06;40.13;;;17.15;;
32455;SDS011;18912;43.270;27.942;2023-03-01T05:10:34;36.78;;;18.08;;
32455;SDS011;18912;43.270;27.942;2023-03-01T05:13:01;34.92;;;18.00;;
32455;SDS011;18912;43.270;27.942;2023-03-01T05:15:29;38.33;;;18.25;;
32455;SDS011;18912;43.270;27.942;2023-03-01T05:17:56;35.85;;;17.92;;
32455;SDS011;18912;43.270;27.942;2023-03-01T05:20:24;33.00;;;16.45;;
32455;SDS011;18912;43.270;27.942;2023-03-01T05:22:52;38.42;;;17.10;;
32455;SDS011;18912;43.270;27.942;2023-03-01T05:25:20;38.80;;;18.67;;
32455;SDS011;18912;43.270;27.942;2023-03-01T05:27:46;37.60;;;18.35;;
32455;SDS011;18912;43.270;27.942;2023-03-01T05:30:12;34.27;;;17.73;;
32455;SDS011;18912;43.270;27.942;2023-03-01T05:32:50;40.72;;;16.67;;
32455;SDS011;18912;43.270;27.942;2023-03-01T05:35:20;37.63;;;17.98;;
32455;SDS011;18912;43.270;27.942;2023-03-01T05:37:47;35.65;;;17.65;;
32455;SDS011;18912;43.270;27.942;2023-03-01T05:40:16;34.83;;;16.98;;
32455;SDS011;18912;43.270;27.942;2023-03-01T05:42:49;36.25;;;17.50;;
32455;SDS011;18912;43.270;27.942;2023-03-01T05:45:18;38.15;;;17.05;;
32455;SDS011;18912;43.270;27.942;2023-03-01T05:47:44;41.63;;;19.13;;
32455;SDS011;18912;43.270;27.942;2023-03-01T05:52:36;40.47;;;17.67;;
32455;SDS011;18912;43.270;27.942;2023-03-01T05:55:02;39.67;;;20.10;;
32455;SDS011;18912;43.270;27.942;2023-03-01T05:57:28;34.40;;;17.97;;
32455;SDS011;18912;43.270;27.942;2023-03-01T05:59:54;30.95;;;17.55;;
32455;SDS011;18912;43.270;27.942;2023-03-01T06:02:19;43.13;;;17.93;;
32455;SDS011;18912;43.270;27.942;2023-03-01T06:04:44;43.90;;;18.43;;
32455;SDS011;18912;43.270;27.942;2023-03-01T06:07:10;44.97;;;19.97;;
32455;SDS011;18912;43.270;27.942;2023-03-01T06:09:36;38.93;;;17.30;;
32455;SDS011;18912;43.270;27.942;2023-03-01T06:12:01;34.90;;;17.87;;
32455;SDS011;18912;43.270;27.942;2023-03-01T06:14:27;35.37;;;18.47;;
32455;SDS011;18912;43.270;27.942;2023-03-01T06:16:52;37.97;;;18.93;;
32455;SDS011;18912;43.270;27.942;2023-03-01T06:19:18;35.13;;;17.30;;
32455;SDS011;18912;43.270;27.942;2023-03-01T06:21:43;38.57;;;17.17;;
32455;SDS011;18912;43.270;27.942;2023-03-01T06:24:08;35.77;;;17.57;;
32455;SDS011;18912;43.270;27.942;2023-03-01T06:26:34;41.80;;;18.47;;
32455;SDS011;18912;43.270;27.942;2023-03-01T06:28:59;34.43;;;17.97;;
32455;SDS011;18912;43.270;27.942;2023-03-01T06:31:25;39.13;;;17.23;;
32455;SDS011;18912;43.270;27.942;2023-03-01T06:33:50;35.67;;;17.13;;
32455;SDS011;18912;43.270;27.942;2023-03-01T06:36:16;44.47;;;18.33;;
32455;SDS011;18912;43.270;27.942;2023-03-01T06:38:43;38.13;;;17.52;;
32455;SDS011;18912;43.270;27.942;2023-03-01T06:41:09;40.17;;;17.38;;
32455;SDS011;18912;43.270;27.942;2023-03-01T06:43:34;34.47;;;17.17;;
32455;SDS011;18912;43.270;27.942;2023-03-01T06:46:03;40.10;;;18.13;;
32455;SDS011;18912;43.270;27.942;2023-03-01T06:48:29;36.53;;;17.77;;
32455;SDS011;18912;43.270;27.942;2023-03-01T06:50:57;52.13;;;17.20;;
32455;SDS011;18912;43.270;27.942;2023-03-01T06:53:23;39.85;;;18.00;;
32455;SDS011;18912;43.270;27.942;2023-03-01T06:55:53;49.00;;;19.30;;
32455;SDS011;18912;43.270;27.942;2023-03-01T06:58:19;33.38;;;17.55;;
32455;SDS011;18912;43.270;27.942;2023-03-01T07:00:45;52.33;;;18.73;;
32455;SDS011;18912;43.270;27.942;2023-03-01T07:03:10;38.93;;;17.90;;
32455;SDS011;18912;43.270;27.942;2023-03-01T07:05:36;25.53;;;12.70;;
32455;SDS011;18912;43.270;27.942;2023-03-01T07:08:01;40.13;;;18.93;;
32455;SDS011;18912;43.270;27.942;2023-03-01T07:10:27;40.07;;;17.93;;
32455;SDS011;18912;43.270;27.942;2023-03-01T07:12:56;31.77;;;16.93;;
32455;SDS011;18912;43.270;27.942;2023-03-01T07:15:22;38.33;;;18.38;;
32455;SDS011;18912;43.270;27.942;2023-03-01T07:17:48;45.97;;;18.02;;
32455;SDS011;18912;43.270;27.942;2023-03-01T07:20:15;42.45;;;20.08;;
32455;SDS011;18912;43.270;27.942;2023-03-01T07:22:42;39.78;;;19.02;;
32455;SDS011;18912;43.270;27.942;2023-03-01T07:25:08;45.15;;;20.10;;
32455;SDS011;18912;43.270;27.942;2023-03-01T07:27:34;42.58;;;18.95;;
32455;SDS011;18912;43.270;27.942;2023-03-01T07:30:00;45.33;;;21.07;;
32455;SDS011;18912;43.270;27.942;2023-03-01T07:32:26;46.90;;;19.60;;
32455;SDS011;18912;43.270;27.942;2023-03-01T07:34:51;43.17;;;19.90;;
32455;SDS011;18912;43.270;27.942;2023-03-01T07:37:17;37.63;;;18.33;;
32455;SDS011;18912;43.270;27.942;2023-03-01T07:39:42;43.10;;;18.80;;
32455;SDS011;18912;43.270;27.942;2023-03-01T07:42:08;40.13;;;19.27;;
32455;SDS011;18912;43.270;27.942;2023-03-01T07:44:33;39.03;;;18.87;;
32455;SDS011;18912;43.270;27.942;2023-03-01T07:47:02;35.97;;;17.90;;
32455;SDS011;18912;43.270;27.942;2023-03-01T07:49:29;38.45;;;18.25;;
32455;SDS011;18912;43.270;27.942;2023-03-01T07:51:54;44.17;;;19.20;;
32455;SDS011;18912;43.270;27.942;2023-03-01T07:54:20;45.37;;;18.50;;
32455;SDS011;18912;43.270;27.942;2023-03-01T07:56:46;35.60;;;16.23;;
32455;SDS011;18912;43.270;27.942;2023-03-01T07:59:11;35.67;;;16.93;;
32455;SDS011;18912;43.270;27.942;2023-03-01T08:01:37;36.27;;;17.70;;
32455;SDS011;18912;43.270;27.942;2023-03-01T08:04:02;36.73;;;17.60;;
32455;SDS011;18912;43.270;27.942;2023-03-01T08:06:29;35.55;;;17.27;;
32455;SDS011;18912;43.270;27.942;2023-03-01T08:08:55;34.35;;;16.88;;
32455;SDS011;18912;43.270;27.942;2023-03-01T08:11:21;34.53;;;16.40;;
32455;SDS011;18912;43.270;27.942;2023-03-01T08:13:47;35.93;;;17.27;;
32455;SDS011;18912;43.270;27.942;2023-03-01T08:16:13;33.78;;;15.50;;
32455;SDS011;18912;43.270;27.942;2023-03-01T08:18:40;30.92;;;15.80;;
32455;SDS011;18912;43.270;27.942;2023-03-01T08:21:11;32.70;;;15.63;;
32455;SDS011;18912;43.270;27.942;2023-03-01T08:23:38;31.70;;;16.02;;
32455;SDS011;18912;43.270;27.942;2023-03-01T08:28:34;30.98;;;16.02;;
32455;SDS011;18912;43.270;27.942;2023-03-01T08:31:01;33.90;;;17.33;;
32455;SDS011;18912;43.270;27.942;2023-03-01T08:33:26;34.77;;;17.03;;
32455;SDS011;18912;43.270;27.942;2023-03-01T08:35:52;33.30;;;17.30;;
32455;SDS011;18912;43.270;27.942;2023-03-01T08:38:17;34.00;;;17.37;;
32455;SDS011;18912;43.270;27.942;2023-03-01T08:40:43;37.33;;;19.13;;
32455;SDS011;18912;43.270;27.942;2023-03-01T08:43:08;34.33;;;17.93;;
32455;SDS011;18912;43.270;27.942;2023-03-01T08:45:34;34.37;;;19.57;;
32455;SDS011;18912;43.270;27.942;2023-03-01T08:47:59;38.03;;;19.20;;
32455;SDS011;18912;43.270;27.942;2023-03-01T08:50:25;33.27;;;17.50;;
32455;SDS011;18912;43.270;27.942;2023-03-01T08:52:50;30.13;;;17.13;;
32455;SDS011;18912;43.270;27.942;2023-03-01T08:55:16;34.73;;;18.20;;
32455;SDS011;18912;43.270;27.942;2023-03-01T08:57:42;36.47;;;18.38;;
32455;SDS011;18912;43.270;27.942;2023-03-01T09:00:09;41.15;;;18.05;;
32455;SDS011;18912;43.270;27.942;2023-03-01T09:02:36;34.40;;;17.08;;
32455;SDS011;18912;43.270;27.942;2023-03-01T09:05:02;34.22;;;18.42;;
32455;SDS011;18912;43.270;27.942;2023-03-01T09:07:28;40.55;;;19.13;;
32455;SDS011;18912;43.270;27.942;2023-03-01T09:09:54;42.13;;;19.33;;
32455;SDS011;18912;43.270;27.942;2023-03-01T09:12:20;37.58;;;19.42;;
32455;SDS011;18912;43.270;27.942;2023-03-01T09:14:45;37.57;;;18.60;;
32455;SDS011;18912;43.270;27.942;2023-03-01T09:17:11;35.97;;;18.63;;
32455;SDS011;18912;43.270;27.942;2023-03-01T09:19:36;36.20;;;19.90;;
32455;SDS011;18912;43.270;27.942;2023-03-01T09:22:03;42.13;;;19.47;;
32455;SDS011;18912;43.270;27.942;2023-03-01T09:26:54;41.35;;;19.40;;
32455;SDS011;18912;43.270;27.942;2023-03-01T09:31:46;36.97;;;18.50;;
32455;SDS011;18912;43.270;27.942;2023-03-01T09:34:12;47.10;;;20.37;;
32455;SDS011;18912;43.270;27.942;2023-03-01T09:36:41;37.63;;;19.40;;
32455;SDS011;18912;43.270;27.942;2023-03-01T09:39:06;47.88;;;19.42;;
32455;SDS011;18912;43.270;27.942;2023-03-01T09:46:55;40.72;;;19.73;;
32455;SDS011;18912;43.270;27.942;2023-03-01T09:49:23;41.25;;;19.08;;
32455;SDS011;18912;43.270;27.942;2023-03-01T09:51:55;44.65;;;18.70;;
32455;SDS011;18912;43.270;27.942;2023-03-01T09:54:24;41.75;;;18.45;;
32455;SDS011;18912;43.270;27.942;2023-03-01T09:59:44;37.25;;;18.95;;
32455;SDS011;18912;43.270;27.942;2023-03-01T10:05:12;33.53;;;17.10;;
32455;SDS011;18912;43.270;27.942;2023-03-01T10:07:48;32.47;;;15.93;;
32455;SDS011;18912;43.270;27.942;2023-03-01T10:10:50;32.80;;;16.80;;
32455;SDS011;18912;43.270;27.942;2023-03-01T10:13:19;27.55;;;15.40;;
32455;SDS011;18912;43.270;27.942;2023-03-01T10:15:53;26.20;;;14.38;;
32455;SDS011;18912;43.270;27.942;2023-03-01T10:18:29;32.75;;;12.80;;
32455;SDS011;18912;43.270;27.942;2023-03-01T10:21:01;24.80;;;12.82;;
32455;SDS011;18912;43.270;27.942;2023-03-01T10:23:46;30.30;;;14.35;;
32455;SDS011;18912;43.270;27.942;2023-03-01T10:29:10;24.77;;;12.90;;
32455;SDS011;18912;43.270;27.942;2023-03-01T10:34:19;28.10;;;13.15;;
32455;SDS011;18912;43.270;27.942;2023-03-01T10:37:16;24.08;;;12.63;;
32455;SDS011;18912;43.270;27.942;2023-03-01T10:39:56;30.65;;;12.30;;
32455;SDS011;18912;43.270;27.942;2023-03-01T10:42:33;26.13;;;12.07;;
32455;SDS011;18912;43.270;27.942;2023-03-01T10:45:16;33.72;;;14.00;;
32455;SDS011;18912;43.270;27.942;2023-03-01T10:50:38;26.25;;;14.15;;
32455;SDS011;18912;43.270;27.942;2023-03-01T10:53:10;30.70;;;14.63;;
32455;SDS011;18912;43.270;27.942;2023-03-01T10:55:58;26.17;;;12.77;;
32455;SDS011;18912;43.270;27.942;2023-03-01T10:58:29;21.85;;;12.30;;
32455;SDS011;18912;43.270;27.942;2023-03-01T11:01:06;23.75;;;12.25;;
32455;SDS011;18912;43.270;27.942;2023-03-01T11:03:40;23.92;;;12.73;;
32455;SDS011;18912;43.270;27.942;2023-03-01T11:08:42;21.83;;;11.18;;
32455;SDS011;18912;43.270;27.942;2023-03-01T11:13:47;20.83;;;10.80;;
32455;SDS011;18912;43.270;27.942;2023-03-01T11:16:14;15.65;;;9.15;;
32455;SDS011;18912;43.270;27.942;2023-03-01T11:21:50;16.80;;;9.35;;
32455;SDS011;18912;43.270;27.942;2023-03-01T11:24:17;18.02;;;9.63;;
32455;SDS011;18912;43.270;27.942;2023-03-01T11:26:46;17.42;;;10.25;;
32455;SDS011;18912;43.270;27.942;2023-03-01T11:29:21;21.48;;;9.60;;
32455;SDS011;18912;43.270;27.942;2023-03-01T11:31:58;18.00;;;10.50;;
32455;SDS011;18912;43.270;27.942;2023-03-01T11:34:47;17.77;;;9.85;;
32455;SDS011;18912;43.270;27.942;2023-03-01T11:37:28;20.35;;;9.20;;
32455;SDS011;18912;43.270;27.942;2023-03-01T11:40:16;17.33;;;10.27;;
32455;SDS011;18912;43.270;27.942;2023-03-01T11:45:26;14.50;;;9.75;;
32455;SDS011;18912;43.270;27.942;2023-03-01T11:48:17;17.20;;;9.80;;
32455;SDS011;18912;43.270;27.942;2023-03-01T11:50:59;16.73;;;9.45;;
32455;SDS011;18912;43.270;27.942;2023-03-01T11:53:33;16.92;;;9.82;;
32455;SDS011;18912;43.270;27.942;2023-03-01T11:56:16;17.67;;;9.45;;
32455;SDS011;18912;43.270;27.942;2023-03-01T12:23:47;16.45;;;9.30;;
32455;SDS011;18912;43.270;27.942;2023-03-01T12:26:35;17.52;;;9.43;;
32455;SDS011;18912;43.270;27.942;2023-03-01T12:32:22;22.75;;;8.48;;
32455;SDS011;18912;43.270;27.942;2023-03-01T12:51:38;12.82;;;8.20;;
32455;SDS011;18912;43.270;27.942;2023-03-01T12:54:14;14.65;;;7.60;;
32455;SDS011;18912;43.270;27.942;2023-03-01T12:56:41;19.15;;;7.57;;
32455;SDS011;18912;43.270;27.942;2023-03-01T13:04:31;16.35;;;7.20;;
32455;SDS011;18912;43.270;27.942;2023-03-01T13:07:22;15.10;;;7.45;;
32455;SDS011;18912;43.270;27.942;2023-03-01T13:10:11;15.20;;;7.55;;
32455;SDS011;18912;43.270;27.942;2023-03-01T13:15:50;13.88;;;7.40;;
32455;SDS011;18912;43.270;27.942;2023-03-01T13:20:48;13.95;;;7.65;;
32455;SDS011;18912;43.270;27.942;2023-03-01T13:33:53;17.33;;;7.93;;
32455;SDS011;18912;43.270;27.942;2023-03-01T13:49:42;18.92;;;8.45;;
32455;SDS011;18912;43.270;27.942;2023-03-01T13:52:20;11.47;;;5.93;;
32455;SDS011;18912;43.270;27.942;2023-03-01T13:54:50;21.98;;;9.20;;
32455;SDS011;18912;43.270;27.942;2023-03-01T13:57:19;20.63;;;9.53;;
32455;SDS011;18912;43.270;27.942;2023-03-01T13:59:50;17.45;;;9.40;;
32455;SDS011;18912;43.270;27.942;2023-03-01T14:02:16;17.50;;;10.10;;
32455;SDS011;18912;43.270;27.942;2023-03-01T14:04:41;17.73;;;9.70;;
32455;SDS011;18912;43.270;27.942;2023-03-01T14:07:20;18.43;;;9.73;;
32455;SDS011;18912;43.270;27.942;2023-03-01T14:09:53;19.85;;;10.52;;
32455;SDS011;18912;43.270;27.942;2023-03-01T14:14:56;16.77;;;9.23;;
32455;SDS011;18912;43.270;27.942;2023-03-01T14:17:32;18.38;;;9.82;;
32455;SDS011;18912;43.270;27.942;2023-03-01T14:20:17;20.55;;;10.23;;
32455;SDS011;18912;43.270;27.942;2023-03-01T14:22:46;21.75;;;10.10;;
32455;SDS011;18912;43.270;27.942;2023-03-01T14:25:17;19.05;;;10.15;;
32455;SDS011;18912;43.270;27.942;2023-03-01T14:27:51;21.88;;;9.90;;
32455;SDS011;18912;43.270;27.942;2023-03-01T14:30:33;23.13;;;11.13;;
32455;SDS011;18912;43.270;27.942;2023-03-01T14:33:04;22.90;;;11.32;;
32455;SDS011;18912;43.270;27.942;2023-03-01T14:35:42;19.67;;;10.55;;
32455;SDS011;18912;43.270;27.942;2023-03-01T14:38:19;22.83;;;10.73;;
32455;SDS011;18912;43.270;27.942;2023-03-01T14:40:46;20.52;;;11.52;;
32455;SDS011;18912;43.270;27.942;2023-03-01T14:43:17;22.98;;;10.65;;
32455;SDS011;18912;43.270;27.942;2023-03-01T14:45:48;21.60;;;11.70;;
32455;SDS011;18912;43.270;27.942;2023-03-01T14:48:15;22.90;;;11.70;;
32455;SDS011;18912;43.270;27.942;2023-03-01T14:50:41;23.90;;;11.85;;
32455;SDS011;18912;43.270;27.942;2023-03-01T14:53:28;20.35;;;11.35;;
32455;SDS011;18912;43.270;27.942;2023-03-01T14:55:55;20.02;;;10.95;;
32455;SDS011;18912;43.270;27.942;2023-03-01T14:58:27;19.02;;;10.60;;
32455;SDS011;18912;43.270;27.942;2023-03-01T15:00:57;20.48;;;10.95;;
32455;SDS011;18912;43.270;27.942;2023-03-01T15:03:27;21.48;;;9.98;;
32455;SDS011;18912;43.270;27.942;2023-03-01T15:05:58;19.05;;;10.60;;
32455;SDS011;18912;43.270;27.942;2023-03-01T15:08:26;21.45;;;11.15;;
32455;SDS011;18912;43.270;27.942;2023-03-01T15:13:38;26.23;;;11.25;;
32455;SDS011;18912;43.270;27.942;2023-03-01T15:18:43;20.25;;;11.05;;
32455;SDS011;18912;43.270;27.942;2023-03-01T15:21:17;24.20;;;12.07;;
32455;SDS011;18912;43.270;27.942;2023-03-01T15:23:48;18.48;;;11.25;;
32455;SDS011;18912;43.270;27.942;2023-03-01T15:26:37;24.00;;;11.38;;
32455;SDS011;18912;43.270;27.942;2023-03-01T15:29:11;19.58;;;11.70;;
32455;SDS011;18912;43.270;27.942;2023-03-01T15:31:42;20.17;;;11.13;;
32455;SDS011;18912;43.270;27.942;2023-03-01T15:34:21;23.02;;;11.45;;
32455;SDS011;18912;43.270;27.942;2023-03-01T15:36:48;22.52;;;11.40;;
32455;SDS011;18912;43.270;27.942;2023-03-01T15:42:47;19.52;;;11.48;;
32455;SDS011;18912;43.270;27.942;2023-03-01T15:47:43;20.95;;;11.57;;
32455;SDS011;18912;43.270;27.942;2023-03-01T15:50:55;21.45;;;11.27;;
32455;SDS011;18912;43.270;27.942;2023-03-01T15:53:06;27.20;;;11.65;;
32455;SDS011;18912;43.270;27.942;2023-03-01T15:55:36;22.90;;;11.07;;
32455;SDS011;18912;43.270;27.942;2023-03-01T16:00:34;18.45;;;10.77;;
32455;SDS011;18912;43.270;27.942;2023-03-01T16:03:00;27.67;;;11.93;;
32455;SDS011;18912;43.270;27.942;2023-03-01T16:05:29;22.53;;;11.23;;
32455;SDS011;18912;43.270;27.942;2023-03-01T16:07:57;26.77;;;11.75;;
32455;SDS011;18912;43.270;27.942;2023-03-01T16:10:23;23.20;;;12.50;;
32455;SDS011;18912;43.270;27.942;2023-03-01T16:12:50;21.50;;;12.20;;
32455;SDS011;18912;43.270;27.942;2023-03-01T16:15:21;21.20;;;12.00;;
32455;SDS011;18912;43.270;27.942;2023-03-01T16:17:49;22.85;;;12.68;;
32455;SDS011;18912;43.270;27.942;2023-03-01T16:20:15;21.13;;;12.07;;
32455;SDS011;18912;43.270;27.942;2023-03-01T16:22:42;24.48;;;12.93;;
32455;SDS011;18912;43.270;27.942;2023-03-01T16:25:13;22.63;;;12.93;;
32455;SDS011;18912;43.270;27.942;2023-03-01T16:27:44;22.27;;;12.45;;
32455;SDS011;18912;43.270;27.942;2023-03-01T16:30:11;24.75;;;14.45;;
32455;SDS011;18912;43.270;27.942;2023-03-01T16:32:38;24.00;;;12.65;;
32455;SDS011;18912;43.270;27.942;2023-03-01T16:35:05;28.00;;;12.63;;
32455;SDS011;18912;43.270;27.942;2023-03-01T16:37:33;22.30;;;12.00;;
32455;SDS011;18912;43.270;27.942;2023-03-01T16:39:59;25.45;;;12.75;;
32455;SDS011;18912;43.270;27.942;2023-03-01T16:42:24;21.43;;;12.33;;
32455;SDS011;18912;43.270;27.942;2023-03-01T16:44:56;19.52;;;9.82;;
32455;SDS011;18912;43.270;27.942;2023-03-01T16:47:22;24.58;;;12.40;;
32455;SDS011;18912;43.270;27.942;2023-03-01T16:49:51;23.27;;;12.17;;
32455;SDS011;18912;43.270;27.942;2023-03-01T16:52:16;22.13;;;12.52;;
32455;SDS011;18912;43.270;27.942;2023-03-01T16:54:42;20.97;;;13.00;;
32455;SDS011;18912;43.270;27.942;2023-03-01T16:57:07;22.37;;;13.27;;